Time;durP1;ratioP1;P1;durP2;ratioP2;P2;SDS_P1;SDS_P2;PMS_P1;PMS_P2;Temp;Humidity;BMP_temperature;BMP_pressure;BME280_temperature;BME280_humidity;BME280_pressure;Samples;Min_cycle;Max_cycle;Signal;HPM_P1;HPM_P2
2024/01/13 00:01:55;;;;;;;5.20;2.13;;;;;;;;;;4997300;28;20636;-74
2024/01/13 00:04:22;;;;;;;0.83;0.83;;;;;;;;;;4999575;28;20379;-73
2024/01/13 00:06:48;;;;;;;2.33;1.00;;;;;;;;;;5007238;28;20228;-74
2024/01/13 00:09:14;;;;;;;0.40;0.40;;;;;;;;;;5009210;28;20605;-74
2024/01/13 00:11:41;;;;;;;4.93;1.23;;;;;;;;;;5024790;28;20202;-73
2024/01/13 00:14:08;;;;;;;2.00;1.87;;;;;;;;;;5016090;28;20679;-74
2024/01/13 00:16:34;;;;;;;3.17;1.37;;;;;;;;;;5007428;28;20224;-74
2024/01/13 00:19:00;;;;;;;0.60;0.60;;;;;;;;;;5006396;28;20233;-74
2024/01/13 00:21:27;;;;;;;3.00;1.53;;;;;;;;;;5009402;28;20233;-74
2024/01/13 00:23:54;;;;;;;1.33;1.33;;;;;;;;;;5007722;28;20228;-74
2024/01/13 00:26:20;;;;;;;0.30;0.30;;;;;;;;;;5006349;28;20275;-73
2024/01/13 00:28:47;;;;;;;2.83;1.90;;;;;;;;;;5023318;28;20743;-74
2024/01/13 00:31:13;;;;;;;0.30;0.30;;;;;;;;;;5003101;28;20225;-73
2024/01/13 00:33:43;;;;;;;1.90;1.80;;;;;;;;;;5024581;28;20732;-74
2024/01/13 00:36:10;;;;;;;3.87;1.40;;;;;;;;;;5006676;28;20228;-74
2024/01/13 00:38:37;;;;;;;0.37;0.37;;;;;;;;;;5005871;28;20888;-74
2024/01/13 00:41:05;;;;;;;1.07;1.07;;;;;;;;;;5005184;28;20242;-74
2024/01/13 00:43:34;;;;;;;0.83;0.83;;;;;;;;;;5006453;28;20676;-74
2024/01/13 00:46:00;;;;;;;4.33;3.53;;;;;;;;;;5008632;28;20233;-74
2024/01/13 00:48:27;;;;;;;3.10;2.10;;;;;;;;;;5012780;28;20343;-74
2024/01/13 00:51:08;;;;;;;1.13;0.73;;;;;;;;;;5004181;28;20224;-74
2024/01/13 00:53:36;;;;;;;1.60;1.50;;;;;;;;;;5009174;28;20229;-74
2024/01/13 00:56:03;;;;;;;2.80;2.60;;;;;;;;;;5008687;28;20294;-74
2024/01/13 00:58:30;;;;;;;0.80;0.80;;;;;;;;;;5006584;28;20229;-73
2024/01/13 01:01:09;;;;;;;1.97;1.87;;;;;;;;;;5007616;28;20228;-74
2024/01/13 01:03:36;;;;;;;1.87;1.30;;;;;;;;;;5011002;28;20224;-74
2024/01/13 01:06:04;;;;;;;0.30;0.30;;;;;;;;;;5004738;28;20306;-73
2024/01/13 01:08:30;;;;;;;1.17;1.17;;;;;;;;;;5003979;28;20225;-74
2024/01/13 01:11:05;;;;;;;11.00;2.60;;;;;;;;;;5020392;28;20263;-73
2024/01/13 01:13:36;;;;;;;5.57;4.27;;;;;;;;;;5016858;28;20229;-73
2024/01/13 01:16:03;;;;;;;5.83;3.80;;;;;;;;;;5026910;28;20247;-73
2024/01/13 01:18:30;;;;;;;0.30;0.30;;;;;;;;;;5027135;28;20225;-74
2024/01/13 01:21:00;;;;;;;1.07;1.07;;;;;;;;;;5012708;28;20238;-73
2024/01/13 01:23:26;;;;;;;0.53;0.53;;;;;;;;;;5005177;28;20236;-74
2024/01/13 01:25:52;;;;;;;0.80;0.80;;;;;;;;;;5016727;28;20319;-73
2024/01/13 01:28:19;;;;;;;0.60;0.60;;;;;;;;;;5003426;28;20240;-73
2024/01/13 01:30:55;;;;;;;0.43;0.43;;;;;;;;;;5009288;28;20232;-73
2024/01/13 01:33:22;;;;;;;2.03;1.70;;;;;;;;;;5007915;28;20228;-73
2024/01/13 01:35:49;;;;;;;2.63;2.30;;;;;;;;;;5009045;28;20308;-73
2024/01/13 01:38:15;;;;;;;1.37;1.27;;;;;;;;;;5011520;28;20229;-73
2024/01/13 01:40:56;;;;;;;1.33;1.23;;;;;;;;;;5007195;28;20757;-74
2024/01/13 01:43:22;;;;;;;0.33;0.33;;;;;;;;;;5006278;28;20235;-74
2024/01/13 01:45:50;;;;;;;1.83;1.73;;;;;;;;;;5010163;28;20622;-74
2024/01/13 01:48:20;;;;;;;4.50;2.60;;;;;;;;;;5022018;28;20229;-74
2024/01/13 01:50:59;;;;;;;1.63;1.60;;;;;;;;;;5002627;28;20229;-74
2024/01/13 01:53:27;;;;;;;1.90;1.17;;;;;;;;;;5004930;28;20642;-73
2024/01/13 01:55:54;;;;;;;2.10;1.40;;;;;;;;;;5008901;28;20231;-74
2024/01/13 01:58:21;;;;;;;0.97;0.97;;;;;;;;;;5012278;28;20808;-74
2024/01/13 02:00:57;;;;;;;7.30;1.60;;;;;;;;;;5022096;28;20291;-73
2024/01/13 02:03:23;;;;;;;0.60;0.60;;;;;;;;;;5012731;28;20233;-73
2024/01/13 02:05:50;;;;;;;0.30;0.30;;;;;;;;;;5012407;28;20231;-74
2024/01/13 02:08:17;;;;;;;0.43;0.43;;;;;;;;;;5011414;28;20240;-74
2024/01/13 02:11:00;;;;;;;1.80;1.70;;;;;;;;;;5005138;28;20284;-74
2024/01/13 02:13:27;;;;;;;2.97;2.70;;;;;;;;;;5010820;28;20243;-74
2024/01/13 02:15:54;;;;;;;2.50;2.40;;;;;;;;;;5009412;28;20225;-73
2024/01/13 02:18:21;;;;;;;1.00;1.00;;;;;;;;;;5011262;28;20224;-74
2024/01/13 02:21:00;;;;;;;10.80;2.30;;;;;;;;;;5010953;28;20248;-74
2024/01/13 02:23:27;;;;;;;0.70;0.70;;;;;;;;;;5009840;28;20232;-73
2024/01/13 02:25:53;;;;;;;0.67;0.67;;;;;;;;;;5008274;28;20221;-74
2024/01/13 02:28:19;;;;;;;0.33;0.33;;;;;;;;;;5005348;28;20228;-73
2024/01/13 02:31:05;;;;;;;1.20;1.10;;;;;;;;;;5017703;28;20314;-73
2024/01/13 02:33:32;;;;;;;0.30;0.30;;;;;;;;;;5033302;28;20225;-73
2024/01/13 02:35:58;;;;;;;2.33;2.23;;;;;;;;;;5007448;28;20608;-73
2024/01/13 02:38:25;;;;;;;1.87;1.70;;;;;;;;;;5000097;28;20597;-74
2024/01/13 02:41:01;;;;;;;1.57;1.47;;;;;;;;;;5018911;28;20220;-74
2024/01/13 02:43:27;;;;;;;0.63;0.63;;;;;;;;;;5002570;28;20232;-73
2024/01/13 02:45:54;;;;;;;2.40;2.20;;;;;;;;;;5004379;28;20233;-74
2024/01/13 02:48:20;;;;;;;0.73;0.73;;;;;;;;;;5003059;28;20233;-73
2024/01/13 02:51:01;;;;;;;2.23;2.13;;;;;;;;;;5005717;28;20275;-74
2024/01/13 02:53:28;;;;;;;1.90;1.23;;;;;;;;;;5007292;28;20236;-73
2024/01/13 02:55:54;;;;;;;0.90;0.90;;;;;;;;;;5005700;28;20225;-74
2024/01/13 02:58:21;;;;;;;0.77;0.77;;;;;;;;;;5005990;28;20608;-74
2024/01/13 03:01:07;;;;;;;0.60;0.60;;;;;;;;;;5001477;28;20798;-73
2024/01/13 03:03:34;;;;;;;1.00;1.00;;;;;;;;;;5016703;28;20318;-73
2024/01/13 03:06:03;;;;;;;4.90;2.67;;;;;;;;;;5004969;28;20225;-74
2024/01/13 03:08:31;;;;;;;0.50;0.50;;;;;;;;;;5007093;28;20225;-74
2024/01/13 03:11:08;;;;;;;1.10;1.07;;;;;;;;;;5010336;28;20235;-74
2024/01/13 03:13:35;;;;;;;2.47;2.27;;;;;;;;;;5010136;28;20308;-73
2024/01/13 03:16:02;;;;;;;2.17;1.13;;;;;;;;;;5005949;28;26238;-74
2024/01/13 03:18:28;;;;;;;2.40;0.80;;;;;;;;;;5019511;28;20324;-74
2024/01/13 03:21:05;;;;;;;1.50;1.40;;;;;;;;;;5007141;28;20796;-74
2024/01/13 03:23:32;;;;;;;2.87;2.67;;;;;;;;;;5022325;28;20850;-73
2024/01/13 03:26:00;;;;;;;3.13;2.87;;;;;;;;;;5010835;28;20744;-73
2024/01/13 03:28:27;;;;;;;9.00;1.50;;;;;;;;;;5006436;28;20602;-74
2024/01/13 03:31:06;;;;;;;3.23;3.03;;;;;;;;;;5003149;28;20228;-74
2024/01/13 03:33:34;;;;;;;2.90;2.30;;;;;;;;;;5005232;28;20229;-74
2024/01/13 03:36:01;;;;;;;1.27;1.03;;;;;;;;;;5005878;28;20233;-73
2024/01/13 03:38:28;;;;;;;2.13;1.10;;;;;;;;;;5001423;28;20233;-74
2024/01/13 03:41:07;;;;;;;0.53;0.53;;;;;;;;;;5007515;28;20232;-73
2024/01/13 03:43:35;;;;;;;0.30;0.30;;;;;;;;;;5009092;28;20744;-74
2024/01/13 03:46:05;;;;;;;1.07;0.80;;;;;;;;;;4996893;28;20226;-74
2024/01/13 03:48:31;;;;;;;6.53;3.50;;;;;;;;;;5020275;28;20224;-73
2024/01/13 03:51:02;;;;;;;0.83;0.83;;;;;;;;;;5008209;28;20227;-74
2024/01/13 03:53:31;;;;;;;1.10;1.10;;;;;;;;;;5013521;28;20225;-74
2024/01/13 03:56:18;;;;;;;1.57;1.50;;;;;;;;;;5009632;28;20367;-74
2024/01/13 03:58:45;;;;;;;14.53;2.93;;;;;;;;;;5013407;28;20239;-73
2024/01/13 04:01:11;;;;;;;2.33;1.80;;;;;;;;;;5006117;28;20243;-73
2024/01/13 04:03:38;;;;;;;1.90;1.80;;;;;;;;;;5018320;28;20251;-73
2024/01/13 04:06:05;;;;;;;1.17;0.97;;;;;;;;;;5029156;28;20224;-74
2024/01/13 04:08:32;;;;;;;0.93;0.93;;;;;;;;;;5015472;28;20308;-74
2024/01/13 04:10:59;;;;;;;6.57;2.70;;;;;;;;;;5010873;28;20252;-73
2024/01/13 04:13:26;;;;;;;5.10;1.53;;;;;;;;;;5026738;28;20252;-73
2024/01/13 04:15:52;;;;;;;4.27;1.27;;;;;;;;;;5011454;28;20310;-74
2024/01/13 04:18:18;;;;;;;3.60;2.23;;;;;;;;;;5003422;28;20225;-74
2024/01/13 04:20:45;;;;;;;1.17;1.17;;;;;;;;;;5008308;28;20236;-74
2024/01/13 04:23:14;;;;;;;0.67;0.67;;;;;;;;;;5000587;28;20225;-73
2024/01/13 04:25:41;;;;;;;1.47;1.37;;;;;;;;;;5008651;28;20228;-74
2024/01/13 04:28:07;;;;;;;0.60;0.60;;;;;;;;;;5004427;28;20224;-74
2024/01/13 04:30:35;;;;;;;1.70;1.60;;;;;;;;;;5005787;28;20235;-73
2024/01/13 04:33:04;;;;;;;1.87;1.77;;;;;;;;;;5017034;28;20250;-73
2024/01/13 04:35:31;;;;;;;1.00;1.00;;;;;;;;;;5012567;28;20875;-74
2024/01/13 04:37:58;;;;;;;6.13;1.13;;;;;;;;;;5014610;28;20247;-73
2024/01/13 04:40:24;;;;;;;0.70;0.70;;;;;;;;;;5009233;28;20233;-73
2024/01/13 04:42:51;;;;;;;1.33;1.23;;;;;;;;;;5006106;28;20753;-74
2024/01/13 04:45:18;;;;;;;1.30;1.23;;;;;;;;;;5001835;28;20252;-74
2024/01/13 04:47:44;;;;;;;1.07;1.07;;;;;;;;;;5024072;28;21045;-74
2024/01/13 04:50:11;;;;;;;0.50;0.50;;;;;;;;;;5002785;28;20225;-74
2024/01/13 04:52:40;;;;;;;0.80;0.80;;;;;;;;;;5016709;28;20247;-74
2024/01/13 04:55:06;;;;;;;0.47;0.47;;;;;;;;;;5025348;28;20319;-73
2024/01/13 04:57:33;;;;;;;0.30;0.30;;;;;;;;;;5004469;28;20237;-74
2024/01/13 04:59:59;;;;;;;3.77;2.27;;;;;;;;;;5005639;28;20729;-73
2024/01/13 05:02:26;;;;;;;0.40;0.40;;;;;;;;;;5008254;28;20220;-73
2024/01/13 05:04:54;;;;;;;0.50;0.50;;;;;;;;;;5008706;28;20322;-74
2024/01/13 05:07:20;;;;;;;0.70;0.70;;;;;;;;;;5009501;28;20256;-74
2024/01/13 05:09:49;;;;;;;0.70;0.70;;;;;;;;;;5008313;28;20227;-74
2024/01/13 05:12:16;;;;;;;5.67;2.03;;;;;;;;;;5005916;28;20222;-74
2024/01/13 05:14:44;;;;;;;0.87;0.87;;;;;;;;;;5004039;28;20220;-73
2024/01/13 05:17:10;;;;;;;0.30;0.30;;;;;;;;;;5003853;28;20232;-74
2024/01/13 05:19:37;;;;;;;1.50;1.40;;;;;;;;;;5007032;28;20236;-74
2024/01/13 05:22:04;;;;;;;0.30;0.30;;;;;;;;;;5006742;28;20228;-74
2024/01/13 05:24:30;;;;;;;1.60;1.50;;;;;;;;;;5006243;28;20229;-74
2024/01/13 05:26:57;;;;;;;0.60;0.60;;;;;;;;;;5004444;28;20239;-74
2024/01/13 05:29:23;;;;;;;1.30;1.30;;;;;;;;;;5004523;28;20255;-73
2024/01/13 05:31:50;;;;;;;0.97;0.97;;;;;;;;;;5005233;28;20248;-74
2024/01/13 05:34:17;;;;;;;1.00;1.00;;;;;;;;;;5004238;28;20218;-74
2024/01/13 05:36:45;;;;;;;1.43;1.33;;;;;;;;;;5007372;28;20228;-74
2024/01/13 05:39:12;;;;;;;0.90;0.87;;;;;;;;;;5000759;28;20236;-74
2024/01/13 05:41:38;;;;;;;0.93;0.70;;;;;;;;;;5008426;28;20233;-73
2024/01/13 05:44:05;;;;;;;2.10;1.17;;;;;;;;;;5004443;28;20251;-74
2024/01/13 05:46:31;;;;;;;0.70;0.70;;;;;;;;;;5012445;28;20234;-74
2024/01/13 05:49:01;;;;;;;0.63;0.63;;;;;;;;;;5005981;28;20237;-74
2024/01/13 05:51:28;;;;;;;2.93;2.20;;;;;;;;;;5003931;28;20250;-74
2024/01/13 05:53:55;;;;;;;0.73;0.73;;;;;;;;;;4999799;28;20224;-73
2024/01/13 05:56:21;;;;;;;2.47;2.37;;;;;;;;;;5008605;28;20279;-74
2024/01/13 05:58:48;;;;;;;0.30;0.30;;;;;;;;;;5005730;28;20228;-74
2024/01/13 06:01:14;;;;;;;0.30;0.30;;;;;;;;;;5006171;28;20235;-74
2024/01/13 06:03:41;;;;;;;2.23;2.00;;;;;;;;;;5010813;28;20227;-74
2024/01/13 06:06:08;;;;;;;5.00;1.67;;;;;;;;;;5008412;28;20236;-74
2024/01/13 06:08:35;;;;;;;1.03;1.03;;;;;;;;;;5013000;28;20235;-74
2024/01/13 06:11:02;;;;;;;1.17;1.17;;;;;;;;;;5008198;28;20259;-74
2024/01/13 06:13:29;;;;;;;0.70;0.70;;;;;;;;;;5002258;28;20274;-74
2024/01/13 06:15:55;;;;;;;1.03;1.03;;;;;;;;;;5003515;28;20220;-73
2024/01/13 06:18:22;;;;;;;1.40;1.30;;;;;;;;;;5008956;28;20308;-74
2024/01/13 06:20:49;;;;;;;6.37;3.73;;;;;;;;;;5000625;28;20227;-73
2024/01/13 06:23:15;;;;;;;6.33;3.27;;;;;;;;;;5005357;28;20249;-74
2024/01/13 06:25:42;;;;;;;1.33;1.33;;;;;;;;;;5003356;28;20233;-74
2024/01/13 06:28:08;;;;;;;0.43;0.43;;;;;;;;;;5007793;28;20714;-73
2024/01/13 06:30:35;;;;;;;0.40;0.40;;;;;;;;;;5009789;28;20225;-73
2024/01/13 06:33:03;;;;;;;1.23;1.23;;;;;;;;;;5007807;28;20379;-74
2024/01/13 06:35:34;;;;;;;0.90;0.90;;;;;;;;;;5007014;28;20237;-74
2024/01/13 06:38:00;;;;;;;2.40;2.20;;;;;;;;;;5004110;28;20240;-74
2024/01/13 06:40:27;;;;;;;0.40;0.40;;;;;;;;;;5000705;28;20220;-73
2024/01/13 06:42:53;;;;;;;0.40;0.40;;;;;;;;;;5000330;28;20244;-73
2024/01/13 06:45:19;;;;;;;11.63;2.53;;;;;;;;;;5005300;28;20229;-73
2024/01/13 06:47:46;;;;;;;1.00;0.97;;;;;;;;;;5010819;28;20229;-73
2024/01/13 06:50:12;;;;;;;0.93;0.93;;;;;;;;;;5010529;28;20224;-74
2024/01/13 06:52:39;;;;;;;0.50;0.50;;;;;;;;;;5009918;28;20766;-73
2024/01/13 06:55:07;;;;;;;1.67;1.50;;;;;;;;;;5002847;28;20604;-74
2024/01/13 06:57:34;;;;;;;1.97;1.87;;;;;;;;;;5022988;28;20237;-74
2024/01/13 07:00:04;;;;;;;0.70;0.70;;;;;;;;;;5000505;28;20225;-74
2024/01/13 07:02:31;;;;;;;3.93;1.90;;;;;;;;;;5039475;28;20284;-73
2024/01/13 07:05:00;;;;;;;2.73;2.00;;;;;;;;;;5026347;28;20608;-74
2024/01/13 07:07:27;;;;;;;2.30;2.10;;;;;;;;;;5026544;28;20237;-73
2024/01/13 07:09:53;;;;;;;0.60;0.60;;;;;;;;;;5021049;28;20233;-73
2024/01/13 07:12:20;;;;;;;6.30;2.63;;;;;;;;;;5021088;28;20236;-73
2024/01/13 07:14:46;;;;;;;2.33;2.20;;;;;;;;;;5015542;28;20244;-73
2024/01/13 07:17:13;;;;;;;5.10;2.60;;;;;;;;;;5005221;28;20724;-74
2024/01/13 07:19:40;;;;;;;1.30;1.23;;;;;;;;;;5011788;28;20242;-74
2024/01/13 07:22:06;;;;;;;3.40;2.00;;;;;;;;;;5007608;28;20229;-73
2024/01/13 07:24:34;;;;;;;4.70;1.47;;;;;;;;;;5010860;28;20240;-74
2024/01/13 07:27:00;;;;;;;3.20;2.90;;;;;;;;;;5006638;28;20235;-74
2024/01/13 07:29:26;;;;;;;2.53;1.57;;;;;;;;;;5007808;28;20228;-74
2024/01/13 07:31:53;;;;;;;1.60;1.53;;;;;;;;;;5003955;28;20229;-74
2024/01/13 07:34:19;;;;;;;0.80;0.73;;;;;;;;;;5013313;28;20224;-73
2024/01/13 07:36:48;;;;;;;0.87;0.87;;;;;;;;;;5008087;28;20260;-73
2024/01/13 07:39:14;;;;;;;0.40;0.40;;;;;;;;;;5005347;28;20581;-74
2024/01/13 07:41:42;;;;;;;1.07;1.07;;;;;;;;;;5007148;28;20452;-74
2024/01/13 07:44:12;;;;;;;0.30;0.30;;;;;;;;;;5007256;28;20791;-74
2024/01/13 07:46:42;;;;;;;1.07;1.07;;;;;;;;;;5010083;28;20736;-73
2024/01/13 07:49:08;;;;;;;0.90;0.90;;;;;;;;;;5010396;28;20725;-74
2024/01/13 07:51:35;;;;;;;0.40;0.40;;;;;;;;;;5029962;28;20229;-73
2024/01/13 07:54:02;;;;;;;0.77;0.77;;;;;;;;;;5020714;28;20239;-74
2024/01/13 07:56:32;;;;;;;0.37;0.37;;;;;;;;;;5009628;28;20263;-74
2024/01/13 07:58:58;;;;;;;1.43;1.33;;;;;;;;;;5009917;28;20231;-74
2024/01/13 08:01:26;;;;;;;0.30;0.30;;;;;;;;;;5008709;28;20228;-73
2024/01/13 08:04:03;;;;;;;9.67;1.17;;;;;;;;;;5008398;28;20239;-74
2024/01/13 08:06:31;;;;;;;0.70;0.70;;;;;;;;;;5007013;28;20570;-75
2024/01/13 08:08:57;;;;;;;2.57;1.70;;;;;;;;;;5010050;28;20299;-74
2024/01/13 08:11:24;;;;;;;0.50;0.50;;;;;;;;;;5008197;28;20296;-74
2024/01/13 08:14:03;;;;;;;0.50;0.50;;;;;;;;;;5008393;28;20617;-74
2024/01/13 08:16:29;;;;;;;4.13;1.13;;;;;;;;;;5007012;28;20928;-74
2024/01/13 08:18:57;;;;;;;1.77;1.70;;;;;;;;;;5008789;28;20229;-74
2024/01/13 08:21:24;;;;;;;0.60;0.60;;;;;;;;;;5008388;28;20232;-74
2024/01/13 08:24:04;;;;;;;3.60;0.97;;;;;;;;;;5007012;28;20507;-73
2024/01/13 08:26:31;;;;;;;1.67;1.57;;;;;;;;;;5007432;28;20279;-74
2024/01/13 08:28:57;;;;;;;0.30;0.30;;;;;;;;;;5003276;28;20232;-74
2024/01/13 08:31:24;;;;;;;5.80;1.90;;;;;;;;;;4998487;28;20232;-74
2024/01/13 08:34:04;;;;;;;0.87;0.87;;;;;;;;;;5006562;28;20255;-74
2024/01/13 08:36:31;;;;;;;2.40;1.87;;;;;;;;;;5004801;28;20241;-74
2024/01/13 08:38:57;;;;;;;0.77;0.77;;;;;;;;;;5014018;28;20211;-75
2024/01/13 08:41:24;;;;;;;0.63;0.63;;;;;;;;;;5004422;28;20308;-75
2024/01/13 08:43:59;;;;;;;0.43;0.43;;;;;;;;;;5006969;28;20240;-75
2024/01/13 08:46:26;;;;;;;1.97;1.87;;;;;;;;;;5007170;28;20725;-75
2024/01/13 08:48:53;;;;;;;1.97;1.90;;;;;;;;;;5006224;28;20248;-75
2024/01/13 08:51:19;;;;;;;1.47;1.40;;;;;;;;;;5007698;28;20260;-75
2024/01/13 08:53:59;;;;;;;3.07;2.83;;;;;;;;;;5005478;28;20302;-75
2024/01/13 08:56:26;;;;;;;0.77;0.77;;;;;;;;;;5010481;28;20279;-76
2024/01/13 08:58:52;;;;;;;0.70;0.70;;;;;;;;;;5008498;28;20237;-76
2024/01/13 09:01:19;;;;;;;0.70;0.70;;;;;;;;;;5003504;28;20235;-75
2024/01/13 09:04:02;;;;;;;0.40;0.40;;;;;;;;;;5004634;28;20324;-76
2024/01/13 09:06:29;;;;;;;0.40;0.40;;;;;;;;;;5006310;28;20308;-75
2024/01/13 09:08:56;;;;;;;3.50;1.53;;;;;;;;;;5005747;28;20272;-76
2024/01/13 09:11:22;;;;;;;1.23;1.17;;;;;;;;;;5002999;28;20252;-75
2024/01/13 09:14:05;;;;;;;1.90;1.33;;;;;;;;;;5008411;28;20422;-75
2024/01/13 09:16:31;;;;;;;0.30;0.30;;;;;;;;;;5007165;28;20235;-76
2024/01/13 09:18:57;;;;;;;4.30;3.17;;;;;;;;;;5007422;28;20677;-76
2024/01/13 09:21:24;;;;;;;0.70;0.70;;;;;;;;;;5006134;28;20229;-76
2024/01/13 09:24:06;;;;;;;2.80;2.20;;;;;;;;;;5008820;28;20323;-76
2024/01/13 09:26:33;;;;;;;0.90;0.90;;;;;;;;;;5005650;28;20236;-75
2024/01/13 09:28:59;;;;;;;2.20;1.67;;;;;;;;;;5006279;28;20239;-76
2024/01/13 09:31:25;;;;;;;1.23;1.20;;;;;;;;;;5006800;28;20600;-75
2024/01/13 09:34:07;;;;;;;1.70;1.23;;;;;;;;;;5004625;28;20313;-75
2024/01/13 09:36:35;;;;;;;1.57;0.83;;;;;;;;;;5005088;28;20307;-75
2024/01/13 09:39:02;;;;;;;0.63;0.63;;;;;;;;;;5004408;28;20233;-75
2024/01/13 09:41:29;;;;;;;1.87;1.77;;;;;;;;;;5006052;28;20225;-76
2024/01/13 09:44:13;;;;;;;2.23;0.63;;;;;;;;;;5006804;28;20236;-76
2024/01/13 09:46:41;;;;;;;1.30;1.30;;;;;;;;;;5028420;28;20216;-77
2024/01/13 09:49:12;;;;;;;2.10;1.60;;;;;;;;;;5033422;28;20276;-78
2024/01/13 09:51:40;;;;;;;1.43;1.33;;;;;;;;;;5010653;28;20233;-77
2024/01/13 09:54:25;;;;;;;2.13;2.00;;;;;;;;;;5027078;28;20248;-77
2024/01/13 09:56:53;;;;;;;0.90;0.90;;;;;;;;;;5018611;28;20646;-77
2024/01/13 09:59:22;;;;;;;0.60;0.60;;;;;;;;;;4997936;28;20235;-76
2024/01/13 10:01:49;;;;;;;0.80;0.77;;;;;;;;;;5014211;28;20221;-76
2024/01/13 10:04:15;;;;;;;0.97;0.97;;;;;;;;;;5012642;28;20240;-76
2024/01/13 10:06:42;;;;;;;1.80;1.33;;;;;;;;;;5004995;28;20623;-75
2024/01/13 10:09:10;;;;;;;2.30;1.27;;;;;;;;;;5003430;28;20232;-76
2024/01/13 10:11:55;;;;;;;0.73;0.73;;;;;;;;;;5006794;28;20228;-75
2024/01/13 10:14:23;;;;;;;2.60;1.13;;;;;;;;;;5003965;28;20304;-76
2024/01/13 10:16:50;;;;;;;1.07;0.97;;;;;;;;;;5004022;28;20233;-75
2024/01/13 10:19:16;;;;;;;1.27;0.80;;;;;;;;;;5002996;28;20235;-76
2024/01/13 10:21:44;;;;;;;1.83;1.70;;;;;;;;;;5008993;28;20229;-75
2024/01/13 10:24:11;;;;;;;0.87;0.87;;;;;;;;;;5008579;28;20239;-75
2024/01/13 10:27:50;;;;;;;;;;;;;;;;;;;;;
2024/01/13 10:30:40;;;;;;;3.50;1.80;;;;;;;;;;4973556;28;20228;-75
2024/01/13 10:34:19;;;;;;;0.57;0.57;;;;;;;;;;5014818;28;20228;-76
2024/01/13 10:45:01;;;;;;;1.07;1.07;;;;;;;;;;4980343;28;20367;-76
2024/01/13 10:49:02;;;;;;;0.37;0.37;;;;;;;;;;4935360;28;20244;-75
2024/01/13 10:52:31;;;;;;;;;;;;;;;;;;;;;
2024/01/13 10:59:25;;;;;;;0.60;0.60;;;;;;;;;;4981349;28;20283;-74
2024/01/13 11:02:09;;;;;;;0.70;0.70;;;;;;;;;;5013447;28;20688;-75
2024/01/13 11:04:36;;;;;;;0.40;0.40;;;;;;;;;;4998024;28;20786;-74
2024/01/13 11:08:09;;;;;;;;;;;;;;;;;;;;;
2024/01/13 11:10:25;;;;;;;1.40;1.30;;;;;;;;;;4972642;28;20727;-75
2024/01/13 11:13:06;;;;;;;1.03;1.03;;;;;;;;;;4998552;28;20236;-75
2024/01/13 11:15:39;;;;;;;1.07;0.63;;;;;;;;;;5012345;28;20826;-75
2024/01/13 11:18:06;;;;;;;0.77;0.77;;;;;;;;;;5010119;28;20236;-75
2024/01/13 11:21:01;;;;;;;8.03;0.97;;;;;;;;;;4998571;28;20589;-75
2024/01/13 11:23:35;;;;;;;2.73;1.17;;;;;;;;;;4995857;28;20217;-76
2024/01/13 11:26:05;;;;;;;0.30;0.30;;;;;;;;;;4998094;28;20240;-75
2024/01/13 11:28:53;;;;;;;0.30;0.30;;;;;;;;;;4996558;28;20220;-75
2024/01/13 11:31:32;;;;;;;1.03;1.03;;;;;;;;;;4994569;28;20232;-75
2024/01/13 11:34:13;;;;;;;0.57;0.57;;;;;;;;;;4996129;28;21134;-75
2024/01/13 11:36:43;;;;;;;0.60;0.60;;;;;;;;;;4996025;28;20780;-75
2024/01/13 11:39:10;;;;;;;1.17;1.17;;;;;;;;;;4993788;28;20224;-75
2024/01/13 11:41:39;;;;;;;0.30;0.30;;;;;;;;;;4996821;28;20228;-75
2024/01/13 11:44:09;;;;;;;1.03;0.97;;;;;;;;;;5005889;28;20228;-75
2024/01/13 11:46:38;;;;;;;1.27;1.27;;;;;;;;;;5004523;28;20788;-76
2024/01/13 11:49:05;;;;;;;1.43;1.40;;;;;;;;;;4995757;28;20316;-75
2024/01/13 11:51:54;;;;;;;0.70;0.70;;;;;;;;;;5005712;28;20232;-75
2024/01/13 11:54:21;;;;;;;1.03;0.90;;;;;;;;;;5019302;28;20263;-75
2024/01/13 11:56:49;;;;;;;0.63;0.63;;;;;;;;;;5002954;28;20232;-75
2024/01/13 11:59:16;;;;;;;0.33;0.33;;;;;;;;;;5004959;28;20721;-75
2024/01/13 12:01:44;;;;;;;0.80;0.80;;;;;;;;;;4999928;28;20727;-76
2024/01/13 12:04:12;;;;;;;0.37;0.37;;;;;;;;;;4998154;28;20225;-76
2024/01/13 12:06:40;;;;;;;1.13;1.13;;;;;;;;;;5015069;28;20291;-75
2024/01/13 12:09:06;;;;;;;1.50;1.10;;;;;;;;;;4994668;28;20224;-76
2024/01/13 12:11:33;;;;;;;0.60;0.60;;;;;;;;;;5002464;28;20244;-76
2024/01/13 12:14:04;;;;;;;0.60;0.60;;;;;;;;;;4997561;28;20659;-76
2024/01/13 12:16:31;;;;;;;2.80;0.67;;;;;;;;;;5007872;28;20259;-76
2024/01/13 12:18:58;;;;;;;0.30;0.30;;;;;;;;;;5002627;28;20555;-76
2024/01/13 12:21:25;;;;;;;1.00;1.00;;;;;;;;;;5003837;28;20229;-76
2024/01/13 12:24:08;;;;;;;0.87;0.87;;;;;;;;;;5017320;28;20224;-78
2024/01/13 12:26:35;;;;;;;1.30;1.30;;;;;;;;;;5028712;28;20227;-75
2024/01/13 12:29:02;;;;;;;1.03;1.03;;;;;;;;;;5018789;28;20602;-75
2024/01/13 12:31:28;;;;;;;0.27;0.27;;;;;;;;;;4997268;28;20312;-75
2024/01/13 12:34:14;;;;;;;0.40;0.40;;;;;;;;;;5008427;28;20685;-75
2024/01/13 12:36:42;;;;;;;1.30;1.20;;;;;;;;;;5018147;28;20229;-75
2024/01/13 12:39:10;;;;;;;1.67;1.63;;;;;;;;;;5004476;28;20218;-80
2024/01/13 12:41:37;;;;;;;1.27;1.27;;;;;;;;;;5017789;28;20244;-79
2024/01/13 12:44:10;;;;;;;1.33;1.17;;;;;;;;;;5003821;28;20298;-78
2024/01/13 12:46:37;;;;;;;1.80;1.33;;;;;;;;;;5007382;28;20232;-78
2024/01/13 12:49:15;;;;;;;0.77;0.73;;;;;;;;;;5009812;28;20751;-79
2024/01/13 12:51:43;;;;;;;3.93;1.63;;;;;;;;;;5004538;28;21784;-79
2024/01/13 12:54:12;;;;;;;0.53;0.53;;;;;;;;;;5003254;28;20311;-79
2024/01/13 12:56:38;;;;;;;1.20;1.13;;;;;;;;;;5013457;28;20228;-81
2024/01/13 12:59:05;;;;;;;1.50;1.40;;;;;;;;;;5005503;28;20253;-80
2024/01/13 13:01:32;;;;;;;1.77;1.67;;;;;;;;;;5003885;28;20862;-79
2024/01/13 13:03:59;;;;;;;0.60;0.60;;;;;;;;;;5019165;28;20232;-79
2024/01/13 13:06:27;;;;;;;4.43;2.23;;;;;;;;;;5006900;28;20236;-78
2024/01/13 13:08:56;;;;;;;1.80;1.70;;;;;;;;;;5005491;28;20282;-80
2024/01/13 13:11:30;;;;;;;1.07;1.07;;;;;;;;;;5022402;28;20278;-80
2024/01/13 13:13:58;;;;;;;0.67;0.63;;;;;;;;;;5003957;28;20744;-80
2024/01/13 13:16:24;;;;;;;0.73;0.50;;;;;;;;;;5005159;28;20612;-80
2024/01/13 13:18:51;;;;;;;0.50;0.50;;;;;;;;;;5007058;28;20256;-79
2024/01/13 13:21:18;;;;;;;1.20;1.20;;;;;;;;;;5009957;28;20286;-80
2024/01/13 13:23:46;;;;;;;0.67;0.67;;;;;;;;;;5004867;28;20259;-79
2024/01/13 13:26:13;;;;;;;2.63;0.63;;;;;;;;;;5010571;28;20327;-78
2024/01/13 13:28:41;;;;;;;2.33;1.80;;;;;;;;;;5008726;28;20239;-78
2024/01/13 13:31:08;;;;;;;0.30;0.30;;;;;;;;;;5005015;28;20225;-76
2024/01/13 13:33:40;;;;;;;0.50;0.50;;;;;;;;;;5000743;28;20319;-76
2024/01/13 13:36:06;;;;;;;0.73;0.73;;;;;;;;;;5003480;28;20282;-77
2024/01/13 13:38:37;;;;;;;1.50;1.47;;;;;;;;;;5000972;28;20236;-77
2024/01/13 13:41:03;;;;;;;0.63;0.63;;;;;;;;;;5002173;28;20228;-78
2024/01/13 13:43:32;;;;;;;5.00;0.77;;;;;;;;;;5003235;28;20732;-78
2024/01/13 13:51:11;;;;;;;0.20;0.20;;;;;;;;;;5002850;28;20594;-78
2024/01/13 13:53:37;;;;;;;0.30;0.30;;;;;;;;;;5008683;28;20724;-79
2024/01/13 13:56:04;;;;;;;1.00;1.00;;;;;;;;;;5021534;28;20243;-77
2024/01/13 13:58:32;;;;;;;0.67;0.67;;;;;;;;;;5011642;28;20527;-77
2024/01/13 14:00:59;;;;;;;1.70;1.37;;;;;;;;;;5001506;28;20350;-77
2024/01/13 14:03:26;;;;;;;0.83;0.80;;;;;;;;;;5002834;28;20641;-77
2024/01/13 14:10:19;;;;;;;0.70;0.70;;;;;;;;;;4886830;29;20607;-78
2024/01/13 14:13:28;;;;;;;;;;;;;;;;;;;;;
2024/01/13 14:17:01;;;;;;;0.60;0.60;;;;;;;;;;4895806;29;20705;-77
2024/01/13 14:20:41;;;;;;;;;;;;;;;;;;;;;
2024/01/13 14:37:50;;;;;;;0.70;0.70;;;;;;;;;;4085217;26;20268;-75
2024/01/13 14:40:17;;;;;;;0.70;0.70;;;;;;;;;;5022313;28;20775;-74
2024/01/13 14:42:44;;;;;;;0.40;0.40;;;;;;;;;;5007414;28;20225;-74
2024/01/13 14:45:11;;;;;;;1.80;1.70;;;;;;;;;;5022746;28;20228;-75
2024/01/13 14:47:51;;;;;;;3.17;1.23;;;;;;;;;;5007694;28;20665;-74
2024/01/13 14:50:22;;;;;;;0.53;0.53;;;;;;;;;;5008537;28;20235;-74
2024/01/13 14:52:50;;;;;;;0.50;0.50;;;;;;;;;;5007876;28;20223;-74
2024/01/13 14:55:16;;;;;;;0.70;0.70;;;;;;;;;;5006953;28;20220;-74
2024/01/13 14:57:43;;;;;;;0.83;0.83;;;;;;;;;;5007514;28;20228;-74
2024/01/13 15:00:10;;;;;;;0.33;0.33;;;;;;;;;;5022752;28;20225;-74
2024/01/13 15:02:38;;;;;;;0.43;0.43;;;;;;;;;;5011730;28;20225;-74
2024/01/13 15:05:06;;;;;;;1.33;0.87;;;;;;;;;;5034181;28;20205;-74
2024/01/13 15:07:45;;;;;;;1.27;1.27;;;;;;;;;;5036609;28;20229;-73
2024/01/13 15:10:13;;;;;;;0.40;0.40;;;;;;;;;;5012060;28;20232;-73
2024/01/13 15:12:40;;;;;;;0.40;0.40;;;;;;;;;;5010676;28;20220;-73
2024/01/13 15:15:07;;;;;;;0.67;0.67;;;;;;;;;;5010960;28;20794;-73
2024/01/13 15:17:44;;;;;;;2.33;0.97;;;;;;;;;;5010869;28;20274;-73
2024/01/13 15:20:11;;;;;;;0.93;0.93;;;;;;;;;;5009892;28;20221;-73
2024/01/13 15:22:38;;;;;;;0.30;0.30;;;;;;;;;;5011236;28;20279;-73
2024/01/13 15:25:05;;;;;;;0.30;0.30;;;;;;;;;;5011172;28;20312;-74
2024/01/13 15:27:44;;;;;;;0.43;0.43;;;;;;;;;;5010856;28;20232;-74
2024/01/13 15:30:12;;;;;;;0.60;0.60;;;;;;;;;;5010695;28;20303;-73
2024/01/13 15:32:39;;;;;;;0.37;0.37;;;;;;;;;;5009591;28;20224;-73
2024/01/13 15:35:09;;;;;;;21.03;1.03;;;;;;;;;;5010174;28;20467;-74
2024/01/13 15:37:41;;;;;;;0.90;0.90;;;;;;;;;;5010939;28;20224;-73
2024/01/13 15:40:08;;;;;;;1.13;1.13;;;;;;;;;;5010179;28;20240;-74
2024/01/13 15:42:34;;;;;;;0.30;0.30;;;;;;;;;;5009641;28;20236;-74
2024/01/13 15:45:01;;;;;;;0.23;0.23;;;;;;;;;;5016860;28;20232;-73